Time;durP1;ratioP1;P1;durP2;ratioP2;P2;SDS_P1;SDS_P2;PMS_P1;PMS_P2;Temp;Humidity;BMP_temperature;BMP_pressure;BME280_temperature;BME280_humidity;BME280_pressure;Samples;Min_cycle;Max_cycle;Signal;HPM_P1;HPM_P2
2023/07/04 00:01:45;;;;;;;1.27;0.90;;;21.20;99.90;;;;;;7385124;19;20143;-76
2023/07/04 00:04:12;;;;;;;2.53;0.93;;;21.10;99.90;;;;;;7389478;19;20206;-74
2023/07/04 00:06:39;;;;;;;1.27;1.10;;;21.00;99.90;;;;;;7385104;19;20169;-76
2023/07/04 00:09:07;;;;;;;1.23;1.00;;;21.10;99.90;;;;;;7393975;19;20142;-75
2023/07/04 00:11:33;;;;;;;1.52;1.13;;;21.00;99.90;;;;;;7391616;19;20155;-74
2023/07/04 00:13:59;;;;;;;2.97;1.40;;;21.00;99.90;;;;;;7390217;19;20141;-75
2023/07/04 00:16:24;;;;;;;2.00;1.38;;;20.90;99.90;;;;;;7391420;19;20151;-75
2023/07/04 00:18:50;;;;;;;3.60;1.27;;;20.80;99.90;;;;;;7389879;19;20593;-74
2023/07/04 00:21:17;;;;;;;2.28;1.35;;;20.80;99.90;;;;;;7390487;19;20130;-74
2023/07/04 00:23:45;;;;;;;1.10;0.95;;;20.80;99.90;;;;;;7394320;19;20123;-75
2023/07/04 00:26:17;;;;;;;1.48;1.25;;;20.80;99.90;;;;;;7391572;19;20506;-76
2023/07/04 00:28:43;;;;;;;2.28;1.33;;;20.80;99.90;;;;;;7390763;19;20155;-75
2023/07/04 00:31:14;;;;;;;4.63;1.20;;;20.80;99.90;;;;;;7393410;19;20131;-75
2023/07/04 00:33:40;;;;;;;2.53;1.10;;;20.70;99.90;;;;;;7391480;19;20139;-74
2023/07/04 00:36:11;;;;;;;1.10;1.00;;;20.70;99.90;;;;;;7391122;19;20131;-74
2023/07/04 00:38:39;;;;;;;3.00;1.38;;;20.70;99.90;;;;;;7391582;19;20230;-75
2023/07/04 00:41:16;;;;;;;1.98;1.20;;;20.70;99.90;;;;;;7393085;19;20841;-75
2023/07/04 00:44:09;;;;;;;1.90;1.38;;;20.70;99.90;;;;;;7392876;19;20161;-75
2023/07/04 00:46:52;;;;;;;2.42;1.25;;;20.60;99.90;;;;;;7389353;19;20250;-75
2023/07/04 00:49:37;;;;;;;1.92;1.50;;;20.60;99.90;;;;;;7391321;19;20142;-75
2023/07/04 00:52:08;;;;;;;1.92;1.25;;;20.60;99.90;;;;;;7392908;19;20746;-75
2023/07/04 00:54:57;;;;;;;2.03;1.10;;;20.60;99.90;;;;;;7390017;19;20198;-75
2023/07/04 00:57:26;;;;;;;1.63;1.02;;;20.60;99.90;;;;;;7390375;19;20127;-75
2023/07/04 00:59:58;;;;;;;2.42;1.35;;;20.60;99.90;;;;;;7389838;19;20521;-75
2023/07/04 01:02:28;;;;;;;1.95;1.15;;;20.70;99.90;;;;;;7392125;19;20142;-75
2023/07/04 01:04:55;;;;;;;3.17;1.40;;;20.70;99.90;;;;;;7392606;19;20138;-75
2023/07/04 01:07:31;;;;;;;2.45;1.27;;;20.70;99.90;;;;;;7390542;19;20145;-76
2023/07/04 01:10:06;;;;;;;1.95;1.30;;;20.70;99.90;;;;;;7390843;19;20214;-73
2023/07/04 01:12:33;;;;;;;2.45;1.55;;;20.60;99.90;;;;;;7393254;19;20596;-75
2023/07/04 01:15:02;;;;;;;3.15;1.20;;;20.50;99.90;;;;;;7389094;19;20146;-75
2023/07/04 01:17:29;;;;;;;2.75;1.30;;;20.50;99.90;;;;;;7390313;19;20624;-76
2023/07/04 01:19:55;;;;;;;2.50;1.35;;;20.50;99.90;;;;;;7387062;19;20180;-75
2023/07/04 01:22:38;;;;;;;1.60;1.30;;;20.50;99.90;;;;;;7390016;19;20155;-75
2023/07/04 01:25:14;;;;;;;1.98;1.35;;;20.40;99.90;;;;;;7391715;19;20138;-75
2023/07/04 01:27:43;;;;;;;3.13;1.45;;;20.50;99.90;;;;;;7390235;19;20134;-76
2023/07/04 01:30:10;;;;;;;2.97;1.85;;;20.50;99.90;;;;;;7393049;19;20134;-76
2023/07/04 01:32:37;;;;;;;3.28;1.75;;;20.60;99.90;;;;;;7389933;19;20157;-75
2023/07/04 01:35:05;;;;;;;2.75;1.48;;;20.60;99.90;;;;;;7390672;19;20173;-75
2023/07/04 01:37:31;;;;;;;2.33;1.55;;;20.70;99.90;;;;;;7390627;19;20473;-75
2023/07/04 01:39:58;;;;;;;4.00;1.63;;;20.70;99.90;;;;;;7390540;19;20126;-75
2023/07/04 01:42:30;;;;;;;4.05;1.50;;;20.70;99.90;;;;;;7390764;19;20206;-75
2023/07/04 01:45:01;;;;;;;2.58;1.10;;;20.70;99.90;;;;;;7390588;19;20152;-75
2023/07/04 01:47:28;;;;;;;2.60;1.27;;;20.80;99.90;;;;;;7387354;19;20575;-75
2023/07/04 01:49:55;;;;;;;4.43;1.58;;;20.70;99.90;;;;;;7388605;19;20158;-74
2023/07/04 01:52:21;;;;;;;2.33;1.50;;;20.60;99.90;;;;;;7389519;19;20154;-75
2023/07/04 01:54:47;;;;;;;1.85;1.20;;;20.70;99.90;;;;;;7388584;19;20142;-75
2023/07/04 01:57:13;;;;;;;3.92;1.60;;;20.70;99.90;;;;;;7391914;19;20122;-76
2023/07/04 01:59:39;;;;;;;1.20;1.10;;;20.70;99.90;;;;;;7388603;19;20473;-75
2023/07/04 02:02:05;;;;;;;2.65;1.30;;;20.70;99.90;;;;;;7389307;19;20158;-75
2023/07/04 02:04:30;;;;;;;2.40;1.20;;;20.70;99.90;;;;;;7389576;19;20153;-75
2023/07/04 02:06:56;;;;;;;1.67;1.20;;;20.70;99.90;;;;;;7388530;19;20577;-75
2023/07/04 02:09:24;;;;;;;1.95;1.73;;;20.70;99.90;;;;;;7386150;19;20171;-75
2023/07/04 02:11:50;;;;;;;3.15;1.05;;;20.80;99.90;;;;;;7388281;19;20141;-75
2023/07/04 02:14:16;;;;;;;2.15;1.20;;;20.70;99.90;;;;;;7384484;19;20472;-75
2023/07/04 02:16:45;;;;;;;2.17;1.30;;;20.70;99.90;;;;;;7388138;19;20484;-74
2023/07/04 02:19:11;;;;;;;2.35;1.50;;;20.60;99.90;;;;;;7387908;19;20173;-75
2023/07/04 02:21:37;;;;;;;2.20;1.60;;;20.60;99.90;;;;;;7380129;19;20146;-74
2023/07/04 02:24:03;;;;;;;1.73;1.27;;;20.60;99.90;;;;;;7389465;19;20150;-74
2023/07/04 02:26:32;;;;;;;2.15;1.20;;;20.60;99.90;;;;;;7388131;19;20201;-75
2023/07/04 02:28:58;;;;;;;2.58;1.70;;;20.60;99.90;;;;;;7387170;19;20205;-74
2023/07/04 02:31:24;;;;;;;1.70;1.23;;;20.50;99.90;;;;;;7387261;19;20146;-74
2023/07/04 02:33:50;;;;;;;2.63;1.50;;;20.60;99.90;;;;;;7386070;19;20126;-75
2023/07/04 02:36:16;;;;;;;1.75;1.23;;;20.70;99.90;;;;;;7386517;19;20142;-75
2023/07/04 02:38:42;;;;;;;2.10;1.23;;;20.70;99.90;;;;;;7390967;19;20155;-75
2023/07/04 02:41:09;;;;;;;1.40;1.17;;;20.60;99.90;;;;;;7387028;19;20157;-75
2023/07/04 02:43:36;;;;;;;2.80;1.45;;;20.60;99.90;;;;;;7388351;19;20173;-75
2023/07/04 02:46:03;;;;;;;1.63;1.23;;;20.60;99.90;;;;;;7385232;19;20631;-74
2023/07/04 02:48:31;;;;;;;1.63;1.33;;;20.60;99.90;;;;;;7388701;19;20169;-75
2023/07/04 02:50:57;;;;;;;1.67;1.30;;;20.50;99.90;;;;;;7387746;19;20535;-74
2023/07/04 02:53:23;;;;;;;1.73;1.27;;;20.50;99.90;;;;;;7385564;19;20175;-74
2023/07/04 02:55:50;;;;;;;2.60;1.25;;;20.50;99.90;;;;;;7389224;19;20150;-74
2023/07/04 02:58:16;;;;;;;1.23;1.00;;;20.50;99.90;;;;;;7386873;19;20139;-74
2023/07/04 03:00:42;;;;;;;1.30;1.20;;;20.60;99.90;;;;;;7389107;19;20518;-74
2023/07/04 03:03:08;;;;;;;1.83;1.05;;;20.60;99.90;;;;;;7386582;19;20147;-75
2023/07/04 03:05:37;;;;;;;1.60;1.23;;;20.60;99.90;;;;;;7388141;19;20152;-75
2023/07/04 03:08:03;;;;;;;1.92;1.20;;;20.60;99.90;;;;;;7388931;19;20543;-74
2023/07/04 03:10:29;;;;;;;2.45;1.33;;;20.50;99.90;;;;;;7388643;19;20167;-74
2023/07/04 03:12:55;;;;;;;1.77;1.00;;;20.50;99.90;;;;;;7384855;19;20135;-75
2023/07/04 03:15:21;;;;;;;3.47;1.25;;;20.40;99.90;;;;;;7387453;19;20651;-75
2023/07/04 03:17:47;;;;;;;2.30;1.20;;;20.50;99.90;;;;;;7388960;19;20143;-75
2023/07/04 03:20:13;;;;;;;2.30;1.35;;;20.50;99.90;;;;;;7387395;19;20146;-75
2023/07/04 03:22:40;;;;;;;1.75;1.10;;;20.40;99.90;;;;;;7387470;19;20607;-75
2023/07/04 03:25:06;;;;;;;1.75;1.20;;;20.40;99.90;;;;;;7387683;19;20137;-74
2023/07/04 03:27:35;;;;;;;2.28;1.20;;;20.40;99.90;;;;;;7387552;19;20143;-74
2023/07/04 03:30:01;;;;;;;1.23;0.90;;;20.50;99.90;;;;;;7387699;19;20504;-75
2023/07/04 03:32:26;;;;;;;2.60;1.30;;;20.40;99.90;;;;;;7386647;19;20122;-74
2023/07/04 03:34:52;;;;;;;1.63;1.10;;;20.40;99.90;;;;;;7387115;19;20143;-74
2023/07/04 03:37:18;;;;;;;3.17;1.40;;;20.40;99.90;;;;;;7386040;19;20123;-75
2023/07/04 03:39:44;;;;;;;3.17;1.40;;;20.30;99.90;;;;;;7386443;19;20206;-73
2023/07/04 03:42:09;;;;;;;4.30;1.42;;;20.40;99.90;;;;;;7381081;19;20138;-74
2023/07/04 03:44:35;;;;;;;2.58;1.77;;;20.40;99.90;;;;;;7386257;19;20210;-74
2023/07/04 03:47:01;;;;;;;2.80;1.70;;;20.30;99.90;;;;;;7382703;19;20199;-74
2023/07/04 03:49:26;;;;;;;3.10;1.30;;;20.30;99.90;;;;;;7385819;19;20169;-74
2023/07/04 03:51:52;;;;;;;2.28;1.30;;;20.30;99.90;;;;;;7384317;19;20146;-74
2023/07/04 03:54:18;;;;;;;2.03;1.25;;;20.20;99.90;;;;;;7382572;19;20614;-74
2023/07/04 03:56:44;;;;;;;2.38;1.13;;;20.30;99.90;;;;;;7385117;19;20149;-75
2023/07/04 03:59:09;;;;;;;2.20;1.52;;;20.00;99.90;;;;;;7386300;19;20138;-75
2023/07/04 04:01:35;;;;;;;4.72;2.10;;;20.20;99.90;;;;;;7384277;19;20570;-75
2023/07/04 04:04:01;;;;;;;35.38;8.85;;;20.20;99.90;;;;;;7385916;19;20146;-74
2023/07/04 04:06:26;;;;;;;10.48;3.88;;;20.40;99.90;;;;;;7382304;19;20725;-75
2023/07/04 04:08:52;;;;;;;5.43;2.53;;;20.30;99.90;;;;;;7385055;19;20579;-75
2023/07/04 04:11:18;;;;;;;5.10;2.35;;;20.30;99.90;;;;;;7383755;19;20139;-76
2023/07/04 04:13:44;;;;;;;5.07;2.30;;;20.40;99.90;;;;;;7383304;19;20133;-74
2023/07/04 04:16:10;;;;;;;4.50;1.77;;;20.40;99.90;;;;;;7382933;19;20645;-74
2023/07/04 04:18:36;;;;;;;4.25;2.22;;;20.50;99.90;;;;;;7383933;19;20134;-75
2023/07/04 04:21:01;;;;;;;3.88;1.92;;;20.60;99.90;;;;;;7381722;19;20269;-74
2023/07/04 04:23:27;;;;;;;5.35;2.13;;;20.50;99.90;;;;;;7386096;19;20142;-75
2023/07/04 04:25:53;;;;;;;4.97;1.70;;;20.60;99.90;;;;;;7382237;19;20146;-74
2023/07/04 04:28:18;;;;;;;4.47;1.92;;;20.60;99.90;;;;;;7383097;19;20627;-74
2023/07/04 04:30:44;;;;;;;2.22;1.40;;;20.70;99.90;;;;;;7382772;19;20151;-75
2023/07/04 04:33:10;;;;;;;2.58;1.60;;;20.70;99.90;;;;;;7382780;19;20602;-75
2023/07/04 04:35:39;;;;;;;2.78;1.70;;;20.70;99.90;;;;;;7380413;19;20537;-75
2023/07/04 04:38:04;;;;;;;2.25;1.13;;;20.80;99.90;;;;;;7385803;19;20177;-75
2023/07/04 04:40:32;;;;;;;2.63;1.63;;;20.80;99.90;;;;;;7383851;19;20585;-76
2023/07/04 04:42:58;;;;;;;1.75;1.48;;;20.80;99.90;;;;;;7383664;19;20214;-74
2023/07/04 04:45:24;;;;;;;1.48;1.10;;;20.60;99.90;;;;;;7383406;19;20155;-74
2023/07/04 04:47:53;;;;;;;2.15;1.50;;;20.70;99.90;;;;;;7382815;19;20155;-74
2023/07/04 04:50:23;;;;;;;4.43;1.50;;;20.60;99.90;;;;;;7382728;19;20147;-74
2023/07/04 04:52:50;;;;;;;1.77;1.23;;;20.70;99.90;;;;;;7381913;19;20172;-75
2023/07/04 04:55:16;;;;;;;4.03;1.70;;;20.70;99.90;;;;;;7389155;19;20154;-75
2023/07/04 04:57:42;;;;;;;1.80;1.42;;;20.80;99.90;;;;;;7389097;19;20146;-75
2023/07/04 05:00:10;;;;;;;4.05;1.65;;;20.80;99.90;;;;;;7389154;19;20662;-75
2023/07/04 05:02:35;;;;;;;3.22;1.73;;;20.80;99.90;;;;;;7389645;19;20583;-75
2023/07/04 05:05:02;;;;;;;3.38;1.48;;;20.80;99.90;;;;;;7388165;19;20173;-74
2023/07/04 05:07:28;;;;;;;2.22;1.20;;;20.80;99.90;;;;;;7388658;19;20137;-74
2023/07/04 05:09:55;;;;;;;4.72;2.58;;;20.90;99.90;;;;;;7389125;19;20148;-75
2023/07/04 05:12:21;;;;;;;2.13;1.70;;;20.90;99.90;;;;;;7390114;19;20591;-74
2023/07/04 05:14:47;;;;;;;2.55;1.67;;;21.00;99.90;;;;;;7389066;19;20254;-75
2023/07/04 05:17:12;;;;;;;1.85;1.27;;;21.10;99.90;;;;;;7386791;19;20126;-75
2023/07/04 05:19:38;;;;;;;4.63;2.03;;;21.20;99.90;;;;;;7387828;19;20130;-75
2023/07/04 05:22:04;;;;;;;5.15;1.80;;;21.20;99.90;;;;;;7388779;19;20151;-75
2023/07/04 05:24:33;;;;;;;2.22;1.60;;;21.10;99.90;;;;;;7386894;19;20498;-76
2023/07/04 05:26:59;;;;;;;4.72;2.00;;;21.10;99.90;;;;;;7390107;19;20131;-73
2023/07/04 05:29:25;;;;;;;3.97;2.00;;;21.10;99.90;;;;;;7387374;19;20150;-76
2023/07/04 05:31:51;;;;;;;3.38;2.20;;;21.20;99.90;;;;;;7384078;19;20146;-76
2023/07/04 05:34:17;;;;;;;4.82;2.38;;;21.30;99.90;;;;;;7384296;19;20463;-77
2023/07/04 05:36:42;;;;;;;7.65;3.20;;;21.30;99.90;;;;;;7383963;19;20604;-77
2023/07/04 05:39:08;;;;;;;4.85;2.17;;;21.20;99.90;;;;;;7388332;19;20145;-76
2023/07/04 05:41:36;;;;;;;2.83;1.20;;;21.30;99.90;;;;;;7388383;19;20203;-76
2023/07/04 05:44:07;;;;;;;2.25;1.40;;;21.30;99.90;;;;;;7385637;19;20169;-77
2023/07/04 05:46:35;;;;;;;2.95;1.73;;;21.50;99.90;;;;;;7387501;19;20677;-77
2023/07/04 05:49:02;;;;;;;3.70;1.80;;;21.60;99.90;;;;;;7388553;19;20139;-76
2023/07/04 05:51:28;;;;;;;3.03;1.85;;;21.60;99.90;;;;;;7387253;19;20650;-77
2023/07/04 05:53:54;;;;;;;3.15;1.67;;;21.60;99.90;;;;;;7386211;19;20541;-76
2023/07/04 05:56:21;;;;;;;2.55;1.55;;;21.70;99.90;;;;;;7386035;19;20235;-76
2023/07/04 05:58:50;;;;;;;4.57;1.75;;;21.60;99.90;;;;;;7389029;19;20333;-77
2023/07/04 06:01:22;;;;;;;2.42;1.52;;;21.70;99.90;;;;;;7387344;19;20621;-77
2023/07/04 06:03:48;;;;;;;3.17;1.60;;;21.70;99.90;;;;;;7387504;19;20154;-78
2023/07/04 06:06:19;;;;;;;4.90;1.70;;;21.70;99.90;;;;;;7385332;19;20134;-77
2023/07/04 06:08:45;;;;;;;4.55;1.90;;;21.90;99.90;;;;;;7385393;19;20161;-77
2023/07/04 06:11:11;;;;;;;3.55;1.58;;;22.20;99.90;;;;;;7390827;19;20127;-78
2023/07/04 06:13:37;;;;;;;5.00;2.90;;;22.30;99.90;;;;;;7384401;19;20230;-77
2023/07/04 06:16:04;;;;;;;2.00;1.73;;;22.40;99.90;;;;;;7387125;19;20559;-76
2023/07/04 06:18:30;;;;;;;3.03;1.75;;;22.70;99.90;;;;;;7386224;19;20126;-76
2023/07/04 06:21:07;;;;;;;3.08;1.58;;;23.70;99.90;;;;;;7386285;19;20562;-77
2023/07/04 06:23:32;;;;;;;2.67;1.20;;;24.20;99.90;;;;;;7387851;19;20150;-78
2023/07/04 06:25:58;;;;;;;3.97;1.80;;;24.20;99.90;;;;;;7382267;19;20534;-77
2023/07/04 06:28:25;;;;;;;3.67;1.20;;;;;;;;;;7387931;19;20583;-75
2023/07/04 06:30:50;;;;;;;6.07;1.63;;;26.50;99.90;;;;;;7386628;19;20601;-75
2023/07/04 06:33:16;;;;;;;2.22;1.50;;;27.10;99.90;;;;;;7385129;19;20127;-76
2023/07/04 06:35:42;;;;;;;4.65;1.95;;;27.90;99.90;;;;;;7389202;19;20131;-76
2023/07/04 06:38:09;;;;;;;2.58;1.58;;;27.80;99.90;;;;;;7388080;19;20150;-76
2023/07/04 06:40:36;;;;;;;3.40;1.70;;;26.60;99.90;;;;;;7386351;19;20143;-75
2023/07/04 06:43:03;;;;;;;4.47;2.78;;;25.90;99.90;;;;;;7388266;19;20542;-74
2023/07/04 06:45:33;;;;;;;4.03;2.45;;;24.50;99.90;;;;;;7388820;19;20167;-75
2023/07/04 06:47:59;;;;;;;4.38;1.70;;;24.30;99.90;;;;;;7389597;19;20642;-75
2023/07/04 06:50:26;;;;;;;5.07;1.90;;;24.10;99.90;;;;;;7386770;19;20134;-74
2023/07/04 06:52:52;;;;;;;2.78;1.48;;;23.70;99.90;;;;;;7387882;19;20130;-75
2023/07/04 06:55:18;;;;;;;2.97;1.77;;;23.70;99.90;;;;;;7386354;19;20161;-75
2023/07/04 06:57:43;;;;;;;3.42;2.15;;;23.60;99.90;;;;;;7388414;19;20494;-75
2023/07/04 07:00:10;;;;;;;4.57;1.90;;;23.80;99.90;;;;;;7385068;19;20569;-76
2023/07/04 07:02:36;;;;;;;3.67;2.03;;;23.70;99.90;;;;;;7385575;19;20176;-75
2023/07/04 07:05:02;;;;;;;3.97;1.60;;;23.80;99.90;;;;;;7385150;19;20536;-75
2023/07/04 07:07:27;;;;;;;5.43;2.17;;;24.10;99.90;;;;;;7384529;19;20525;-75
2023/07/04 07:09:53;;;;;;;2.17;1.55;;;24.30;99.90;;;;;;7388112;19;20130;-75
2023/07/04 07:12:19;;;;;;;4.57;1.92;;;24.50;99.90;;;;;;7385232;19;20131;-75
2023/07/04 07:14:47;;;;;;;4.85;1.92;;;24.30;99.90;;;;;;7384128;19;20138;-75
2023/07/04 07:17:13;;;;;;;2.70;1.85;;;24.10;99.90;;;;;;7382764;19;20148;-75
2023/07/04 07:19:39;;;;;;;5.03;2.03;;;23.90;99.90;;;;;;7386605;19;20134;-74
2023/07/04 07:22:04;;;;;;;4.53;2.40;;;23.90;99.90;;;;;;7386654;19;20143;-75
2023/07/04 07:24:31;;;;;;;5.20;2.25;;;23.80;99.90;;;;;;7386326;19;20156;-74
2023/07/04 07:26:57;;;;;;;7.40;2.95;;;23.80;99.90;;;;;;7385259;19;20163;-74
2023/07/04 07:29:24;;;;;;;3.22;2.15;;;23.40;99.90;;;;;;7385938;19;20637;-75
2023/07/04 07:31:50;;;;;;;4.07;2.00;;;23.10;99.90;;;;;;7388495;19;20661;-74
2023/07/04 07:34:19;;;;;;;4.82;2.35;;;22.90;99.90;;;;;;7382351;19;20233;-75
2023/07/04 07:36:46;;;;;;;3.95;2.00;;;22.70;99.90;;;;;;7386388;19;20172;-74
2023/07/04 07:39:16;;;;;;;3.33;2.10;;;22.80;99.90;;;;;;7384729;19;20269;-74
2023/07/04 07:41:46;;;;;;;5.93;2.10;;;22.90;99.90;;;;;;7387791;19;20139;-74
2023/07/04 07:44:13;;;;;;;4.10;1.60;;;22.90;99.90;;;;;;7384795;19;20130;-75
2023/07/04 07:46:39;;;;;;;3.97;1.95;;;23.00;99.90;;;;;;7383610;19;20146;-75
2023/07/04 07:49:05;;;;;;;5.03;2.00;;;23.10;99.90;;;;;;7386953;19;20139;-75
2023/07/04 07:51:31;;;;;;;3.40;1.70;;;23.30;99.90;;;;;;7385029;19;20153;-75
2023/07/04 07:53:58;;;;;;;3.33;1.73;;;23.40;99.90;;;;;;7384589;19;20202;-75
2023/07/04 07:56:31;;;;;;;4.80;2.00;;;23.50;99.90;;;;;;7383231;19;20155;-73
2023/07/04 07:58:58;;;;;;;6.20;2.53;;;23.50;99.90;;;;;;7384172;19;20142;-74
2023/07/04 08:01:30;;;;;;;5.20;2.40;;;23.50;99.90;;;;;;7384422;19;20147;-75
2023/07/04 08:03:57;;;;;;;4.65;2.92;;;23.70;99.90;;;;;;7384630;19;20143;-75
2023/07/04 08:06:27;;;;;;;4.65;2.38;;;23.90;99.90;;;;;;7384575;19;20126;-74
2023/07/04 08:08:55;;;;;;;3.42;2.50;;;23.70;99.90;;;;;;7384501;19;20488;-75
2023/07/04 08:11:21;;;;;;;3.22;1.80;;;23.90;99.90;;;;;;7388043;19;20187;-75
2023/07/04 08:13:48;;;;;;;4.97;2.85;;;23.90;99.90;;;;;;7383817;19;20163;-75
2023/07/04 08:16:18;;;;;;;7.75;5.05;;;24.00;99.90;;;;;;7383993;19;20161;-75
2023/07/04 08:18:44;;;;;;;6.22;3.08;;;24.20;99.90;;;;;;7384969;19;20160;-75
2023/07/04 08:21:10;;;;;;;5.95;2.97;;;24.50;99.90;;;;;;7384880;19;20143;-75
2023/07/04 08:23:35;;;;;;;5.82;3.13;;;24.60;99.90;;;;;;7386146;19;20135;-75
2023/07/04 08:26:01;;;;;;;6.10;2.60;;;24.70;99.90;;;;;;7383314;19;20451;-75
2023/07/04 08:28:27;;;;;;;5.95;2.92;;;24.80;99.90;;;;;;7384853;19;20163;-76
2023/07/04 08:30:53;;;;;;;6.57;2.92;;;24.50;99.90;;;;;;7391636;19;20168;-75
2023/07/04 08:33:19;;;;;;;8.40;3.30;;;24.40;99.90;;;;;;7388380;19;20194;-75
2023/07/04 08:35:57;;;;;;;6.32;2.30;;;24.80;99.90;;;;;;7389929;19;20151;-73
2023/07/04 08:38:23;;;;;;;3.38;2.00;;;24.70;99.90;;;;;;7389476;19;20134;-74
2023/07/04 08:40:49;;;;;;;5.57;3.50;;;24.90;99.90;;;;;;7391287;19;20141;-74
2023/07/04 08:43:21;;;;;;;7.93;4.57;;;24.90;99.90;;;;;;7390690;19;20138;-74
2023/07/04 08:45:48;;;;;;;6.70;3.38;;;25.00;99.90;;;;;;7387917;19;20493;-75
2023/07/04 08:48:17;;;;;;;4.95;2.35;;;25.10;99.90;;;;;;7390715;19;20137;-74
2023/07/04 08:50:49;;;;;;;5.50;3.00;;;25.20;99.90;;;;;;7389216;19;20138;-74
2023/07/04 08:53:22;;;;;;;4.65;2.30;;;25.40;99.90;;;;;;7389616;19;20161;-76
2023/07/04 08:56:10;;;;;;;4.80;2.67;;;25.70;99.90;;;;;;7389301;19;20143;-74
2023/07/04 08:58:47;;;;;;;4.05;2.25;;;25.90;99.50;;;;;;7390047;19;20143;-74
2023/07/04 09:01:26;;;;;;;4.72;2.35;;;25.70;99.60;;;;;;7390442;19;20142;-74
2023/07/04 09:04:35;;;;;;;4.13;2.78;;;25.70;99.30;;;;;;7391764;19;20134;-75
2023/07/04 09:07:18;;;;;;;3.15;2.08;;;25.50;99.60;;;;;;7388463;19;20217;-74
2023/07/04 09:09:59;;;;;;;4.43;2.55;;;25.50;99.80;;;;;;7388816;19;20143;-75
2023/07/04 09:12:31;;;;;;;4.47;2.95;;;25.60;99.90;;;;;;7388875;19;20141;-76
2023/07/04 09:15:16;;;;;;;6.28;2.42;;;26.00;99.10;;;;;;7386552;19;20164;-75
2023/07/04 09:18:18;;;;;;;4.72;2.97;;;26.00;99.20;;;;;;7389462;19;20205;-74
2023/07/04 09:20:49;;;;;;;5.45;2.75;;;26.10;99.60;;;;;;7386355;19;20165;-75
2023/07/04 09:23:22;;;;;;;5.70;2.92;;;26.20;99.00;;;;;;7390963;19;20160;-76
2023/07/04 09:25:49;;;;;;;6.57;2.67;;;25.90;98.80;;;;;;7389148;19;20143;-75
2023/07/04 09:28:15;;;;;;;5.63;3.63;;;25.40;99.50;;;;;;7388526;19;20127;-75
2023/07/04 09:30:41;;;;;;;4.07;2.55;;;25.40;99.30;;;;;;7389543;19;20133;-74
2023/07/04 09:33:09;;;;;;;6.07;3.25;;;25.50;99.40;;;;;;7389217;19;20489;-74
2023/07/04 09:35:36;;;;;;;10.43;4.43;;;25.60;99.10;;;;;;7386184;19;20146;-74
2023/07/04 09:38:03;;;;;;;8.27;4.47;;;25.40;97.90;;;;;;7388315;19;20161;-75
2023/07/04 09:40:58;;;;;;;5.90;3.40;;;25.20;97.80;;;;;;7385690;19;20127;-74
2023/07/04 09:43:30;;;;;;;5.95;3.47;;;24.80;98.40;;;;;;7386650;19;20170;-75
2023/07/04 09:46:19;;;;;;;4.20;3.05;;;24.90;99.60;;;;;;7386074;19;20587;-74
2023/07/04 09:48:45;;;;;;;7.70;3.60;;;25.40;98.60;;;;;;7387919;19;20138;-75
2023/07/04 09:51:27;;;;;;;7.45;4.30;;;25.80;98.10;;;;;;7391736;19;20134;-75
2023/07/04 09:54:09;;;;;;;6.82;5.30;;;26.20;97.60;;;;;;7386643;19;20130;-75
2023/07/04 09:56:35;;;;;;;7.60;5.43;;;26.80;97.20;;;;;;7387403;19;20214;-76
2023/07/04 09:59:16;;;;;;;7.97;3.55;;;27.20;96.10;;;;;;7390616;19;20473;-75
2023/07/04 10:01:55;;;;;;;7.18;3.92;;;27.10;94.60;;;;;;7388166;19;20141;-75
2023/07/04 10:04:34;;;;;;;6.63;3.65;;;27.00;94.50;;;;;;7388452;19;20835;-75
2023/07/04 10:07:03;;;;;;;5.75;3.38;;;26.80;94.60;;;;;;7387957;19;20135;-75
2023/07/04 10:09:29;;;;;;;5.03;3.28;;;26.60;96.00;;;;;;7387462;19;20137;-76
2023/07/04 10:12:11;;;;;;;6.32;2.78;;;26.50;96.10;;;;;;7388420;19;20138;-75
2023/07/04 10:14:47;;;;;;;4.07;2.88;;;25.90;97.10;;;;;;7387620;19;20141;-74
2023/07/04 10:17:19;;;;;;;6.53;3.03;;;25.70;97.60;;;;;;7388971;19;20491;-72
2023/07/04 10:19:51;;;;;;;11.00;8.20;;;25.70;98.50;;;;;;7391595;19;20135;-74
2023/07/04 10:22:25;;;;;;;10.18;6.55;;;26.00;97.90;;;;;;7387585;19;20205;-75
2023/07/04 10:24:52;;;;;;;6.60;3.90;;;26.20;97.40;;;;;;7388445;19;20146;-75
2023/07/04 10:27:20;;;;;;;4.30;3.35;;;26.10;96.70;;;;;;7387275;19;20143;-75
2023/07/04 10:29:54;;;;;;;5.75;3.40;;;26.00;96.70;;;;;;7388503;19;20142;-76
2023/07/04 10:32:21;;;;;;;6.03;3.78;;;25.90;96.60;;;;;;7386711;19;20159;-74
2023/07/04 10:34:50;;;;;;;5.32;3.20;;;25.50;96.90;;;;;;7385794;19;20151;-75
2023/07/04 10:37:23;;;;;;;4.07;2.88;;;25.20;97.50;;;;;;7385382;19;20153;-76
2023/07/04 10:39:56;;;;;;;7.05;3.60;;;24.90;97.70;;;;;;7387919;19;20150;-74
2023/07/04 10:42:45;;;;;;;6.13;3.20;;;24.90;97.90;;;;;;7388207;19;20149;-74
2023/07/04 10:45:15;;;;;;;4.38;2.92;;;24.90;98.30;;;;;;7386261;19;20150;-74
2023/07/04 10:47:42;;;;;;;7.32;4.05;;;24.90;98.20;;;;;;7383889;19;20323;-73
2023/07/04 10:50:17;;;;;;;8.65;3.80;;;25.00;98.00;;;;;;7389413;19;20206;-75
2023/07/04 10:52:47;;;;;;;7.38;3.53;;;25.10;97.70;;;;;;7385807;19;20844;-74
2023/07/04 10:55:37;;;;;;;5.82;3.72;;;25.00;97.80;;;;;;7386348;19;20151;-74
2023/07/04 10:58:20;;;;;;;6.07;3.50;;;24.90;98.20;;;;;;7386440;19;20301;-74
2023/07/04 11:00:48;;;;;;;6.82;3.63;;;25.10;97.80;;;;;;7387921;19;21039;-74
2023/07/04 11:03:38;;;;;;;5.50;4.05;;;25.10;97.20;;;;;;7385479;19;20145;-73
2023/07/04 11:06:11;;;;;;;5.75;3.42;;;25.10;96.90;;;;;;7384364;19;20150;-74
2023/07/04 11:08:39;;;;;;;6.03;3.75;;;25.00;96.90;;;;;;7386488;19;20145;-74
2023/07/04 11:11:15;;;;;;;4.32;3.30;;;25.00;97.10;;;;;;7386555;19;20160;-74
2023/07/04 11:13:52;;;;;;;5.35;3.53;;;25.10;96.90;;;;;;7384938;19;20165;-74
2023/07/04 11:16:27;;;;;;;5.25;3.25;;;25.20;97.30;;;;;;7385743;19;20160;-74
2023/07/04 11:19:06;;;;;;;7.93;3.97;;;25.50;96.90;;;;;;7386953;19;20165;-73
2023/07/04 11:21:33;;;;;;;5.32;3.50;;;25.80;96.70;;;;;;7384997;19;20134;-74
2023/07/04 11:24:14;;;;;;;8.07;6.60;;;26.00;96.10;;;;;;7385944;19;20143;-75
2023/07/04 11:26:54;;;;;;;6.63;4.20;;;26.00;95.40;;;;;;7385538;19;20429;-75
2023/07/04 11:29:22;;;;;;;6.35;3.00;;;26.00;95.40;;;;;;7385055;19;20138;-76
2023/07/04 11:32:03;;;;;;;5.55;3.55;;;26.00;95.10;;;;;;7386325;19;20135;-76
2023/07/04 11:35:03;;;;;;;5.38;3.15;;;25.90;94.80;;;;;;7381492;19;20138;-74
2023/07/04 11:37:28;;;;;;;4.78;3.00;;;25.60;95.10;;;;;;7384742;19;20154;-77
2023/07/04 11:39:59;;;;;;;4.60;2.88;;;25.40;95.10;;;;;;7385541;19;20146;-76
2023/07/04 11:42:47;;;;;;;6.35;2.85;;;25.30;95.20;;;;;;7384956;19;20135;-75
2023/07/04 11:45:21;;;;;;;15.32;11.52;;;25.20;95.10;;;;;;7387342;19;20160;-74
2023/07/04 11:48:02;;;;;;;6.70;3.22;;;25.30;95.50;;;;;;7379342;19;20231;-76
2023/07/04 11:50:40;;;;;;;5.70;3.03;;;25.70;95.40;;;;;;7387043;19;20135;-75
2023/07/04 11:53:36;;;;;;;5.90;3.58;;;26.00;95.00;;;;;;7385381;19;20134;-75
2023/07/04 11:56:33;;;;;;;6.25;3.50;;;26.50;94.10;;;;;;7380985;19;20522;-77
2023/07/04 11:59:11;;;;;;;6.35;3.78;;;26.40;93.60;;;;;;7385105;19;20485;-77
2023/07/04 12:01:52;;;;;;;4.82;2.92;;;26.20;93.90;;;;;;7385949;19;20217;-76
2023/07/04 12:04:45;;;;;;;6.88;2.95;;;26.10;94.00;;;;;;7392560;19;20157;-76
2023/07/04 12:07:38;;;;;;;7.55;3.90;;;25.90;94.10;;;;;;7398998;19;20217;-76
2023/07/04 12:10:19;;;;;;;6.13;4.43;;;25.70;94.10;;;;;;7397711;19;20172;-76
2023/07/04 12:12:57;;;;;;;6.65;3.35;;;25.60;94.50;;;;;;7398509;19;20237;-76
2023/07/04 12:15:31;;;;;;;7.45;4.05;;;25.70;94.20;;;;;;7396710;19;21600;-77
2023/07/04 12:17:59;;;;;;;5.13;3.22;;;25.70;94.40;;;;;;7397907;19;20131;-76
2023/07/04 12:20:30;;;;;;;7.75;3.35;;;25.70;94.00;;;;;;7398247;19;20134;-76
2023/07/04 12:22:58;;;;;;;4.85;3.13;;;25.90;94.00;;;;;;7396669;19;20150;-75
2023/07/04 12:25:33;;;;;;;7.50;3.38;;;25.90;93.60;;;;;;7398123;19;20177;-76
2023/07/04 12:28:02;;;;;;;4.82;3.22;;;26.00;93.50;;;;;;7398773;19;20150;-76
2023/07/04 12:30:28;;;;;;;6.68;3.50;;;26.20;92.90;;;;;;7398732;19;20146;-76
2023/07/04 12:32:54;;;;;;;4.32;2.83;;;26.20;92.70;;;;;;7397726;19;20544;-76
2023/07/04 12:35:25;;;;;;;4.05;2.83;;;26.20;92.50;;;;;;7396853;19;20159;-76
2023/07/04 12:37:55;;;;;;;4.40;3.25;;;26.10;92.60;;;;;;7397182;19;20149;-76
2023/07/04 12:40:25;;;;;;;4.18;2.92;;;26.10;92.80;;;;;;7396609;19;20134;-75
2023/07/04 12:42:52;;;;;;;4.88;2.80;;;26.00;93.00;;;;;;7399231;19;20142;-75
2023/07/04 12:45:23;;;;;;;4.68;3.00;;;26.20;92.50;;;;;;7395022;19;20130;-75
2023/07/04 12:47:51;;;;;;;7.20;3.42;;;26.30;92.10;;;;;;7395550;19;20165;-75
2023/07/04 12:50:18;;;;;;;4.95;3.45;;;26.40;91.50;;;;;;7397149;19;20594;-76
2023/07/04 12:52:46;;;;;;;4.00;2.80;;;26.30;91.80;;;;;;7396127;19;20206;-74
2023/07/04 12:55:33;;;;;;;6.05;3.35;;;26.40;91.60;;;;;;7399060;19;20211;-74
2023/07/04 12:58:00;;;;;;;4.72;2.85;;;26.00;91.30;;;;;;7397498;19;20563;-73
2023/07/04 13:00:52;;;;;;;4.80;3.30;;;26.10;92.10;;;;;;7397500;19;20142;-76
2023/07/04 13:03:18;;;;;;;5.15;2.95;;;26.50;91.90;;;;;;7394283;19;20146;-75